METAR Data
IDs: Format: Raw Decoded Include TAF

Data at: 1506 UTC 21 Apr 2021

METAR for:KLRJ (Le Mars Muni, IA, US)
Text:KLRJ 211455Z AUTO 32006G14KT 10SM CLR 00/M08 A3028 RMK AO2
Temperature: 0.0°C ( 32°F)
Dewpoint: -8.0°C ( 18°F) [RH = 55%]
Pressure (altimeter):30.28 inches Hg (1025.5 mb)
Winds:from the NW (320 degrees) at 7 MPH (6 knots; 3.1 m/s) gusting to 16 MPH (14 knots; 7.2 m/s)
Visibility:10 or more sm (16+ km)
Ceiling:at least 12,000 feet AGL
Clouds:sky clear below 12,000 feet AGL
QC Flag:automated observation with no human augmentation